Time;durP1;ratioP1;P1;durP2;ratioP2;P2;SDS_P1;SDS_P2;PMS_P1;PMS_P2;Temp;Humidity;BMP_temperature;BMP_pressure;BME280_temperature;BME280_humidity;BME280_pressure;Samples;Min_cycle;Max_cycle;Signal;HPM_P1;HPM_P2
2021/09/20 00:01:21;;;;;;;5.30;1.08;;;15.90;75.70;;;;;;4954736;29;20031;-79
2021/09/20 00:03:47;;;;;;;4.18;0.57;;;15.90;76.60;;;;;;4954669;29;20102;-79
2021/09/20 00:06:12;;;;;;;4.07;0.95;;;15.80;76.00;;;;;;4953884;28;20046;-79
2021/09/20 00:08:38;;;;;;;2.85;0.60;;;15.80;76.10;;;;;;4954326;29;20039;-79
2021/09/20 00:11:04;;;;;;;5.15;0.85;;;15.80;76.00;;;;;;4937869;29;20031;-79
2021/09/20 00:13:29;;;;;;;5.00;0.90;;;15.80;76.20;;;;;;4954213;29;20039;-79
2021/09/20 00:15:55;;;;;;;4.03;1.00;;;15.80;75.80;;;;;;4936827;29;20033;-79
2021/09/20 00:18:21;;;;;;;4.47;0.70;;;15.80;76.10;;;;;;4936859;29;20396;-80
2021/09/20 00:20:46;;;;;;;4.40;0.82;;;15.80;75.80;;;;;;4953852;29;20034;-79
2021/09/20 00:23:12;;;;;;;4.05;0.80;;;15.80;76.10;;;;;;4954917;29;20152;-79
2021/09/20 00:25:38;;;;;;;5.50;0.73;;;15.80;75.90;;;;;;4953933;29;20031;-79
2021/09/20 00:28:04;;;;;;;4.38;1.15;;;15.80;76.20;;;;;;4953953;29;20031;-79
2021/09/20 00:30:29;;;;;;;4.20;0.82;;;15.70;75.90;;;;;;4953948;29;20031;-79
2021/09/20 00:32:55;;;;;;;3.25;0.77;;;15.70;75.90;;;;;;4953981;29;20051;-80
2021/09/20 00:35:20;;;;;;;4.13;0.82;;;15.70;76.30;;;;;;4953755;29;20039;-79
2021/09/20 00:37:46;;;;;;;4.25;0.80;;;15.60;76.00;;;;;;4937047;29;20126;-79
2021/09/20 00:40:12;;;;;;;5.10;0.98;;;15.60;76.00;;;;;;4953786;29;20091;-79
2021/09/20 00:42:38;;;;;;;5.10;0.82;;;15.60;76.40;;;;;;4953846;29;22101;-79
2021/09/20 00:45:06;;;;;;;4.97;0.85;;;15.60;76.80;;;;;;4953893;29;20047;-79
2021/09/20 00:47:32;;;;;;;4.25;0.80;;;15.60;76.60;;;;;;4953796;29;20038;-79
2021/09/20 00:49:57;;;;;;;5.13;0.80;;;15.60;76.40;;;;;;4954064;29;20024;-79
2021/09/20 00:52:23;;;;;;;5.90;1.20;;;15.60;76.30;;;;;;4953577;29;20043;-79
2021/09/20 00:54:50;;;;;;;4.05;0.95;;;15.60;76.50;;;;;;4936214;29;20030;-79
2021/09/20 00:57:16;;;;;;;4.47;1.10;;;15.60;76.60;;;;;;4953578;29;20047;-79
2021/09/20 00:59:42;;;;;;;3.83;0.60;;;15.50;76.20;;;;;;4953665;29;20464;-79
2021/09/20 01:02:08;;;;;;;4.97;0.70;;;15.50;76.70;;;;;;4954385;29;20055;-79
2021/09/20 01:04:33;;;;;;;4.25;0.77;;;15.50;76.70;;;;;;4953438;29;20046;-78
2021/09/20 01:06:59;;;;;;;6.70;0.85;;;15.50;76.70;;;;;;4953970;29;20028;-79
2021/09/20 01:09:25;;;;;;;6.18;1.13;;;15.50;76.40;;;;;;4956094;29;20032;-79
2021/09/20 01:11:52;;;;;;;3.70;0.73;;;15.50;76.50;;;;;;4940619;29;20467;-79
2021/09/20 01:14:18;;;;;;;5.22;0.63;;;15.50;76.50;;;;;;4958915;29;20034;-79
2021/09/20 01:16:44;;;;;;;5.55;0.95;;;15.50;76.60;;;;;;4958963;28;20091;-78
2021/09/20 01:19:09;;;;;;;7.03;1.20;;;15.40;76.50;;;;;;4957673;29;20094;-79
2021/09/20 01:21:35;;;;;;;5.55;0.85;;;15.50;76.60;;;;;;4957465;29;20142;-79
2021/09/20 01:24:01;;;;;;;4.30;0.77;;;15.40;76.30;;;;;;4957529;29;20027;-79
2021/09/20 01:26:26;;;;;;;5.80;0.75;;;15.30;76.60;;;;;;4957550;29;20027;-79
2021/09/20 01:28:52;;;;;;;3.17;0.80;;;15.30;76.90;;;;;;4957628;29;20039;-80
2021/09/20 01:31:19;;;;;;;4.13;1.00;;;15.40;76.90;;;;;;4957612;29;20053;-79
2021/09/20 01:33:45;;;;;;;6.43;0.77;;;15.40;76.60;;;;;;4956829;29;20043;-79
2021/09/20 01:36:10;;;;;;;4.45;0.73;;;15.30;76.70;;;;;;4956922;29;20114;-79
2021/09/20 01:38:36;;;;;;;5.05;0.70;;;15.30;76.80;;;;;;4957272;29;20076;-79
2021/09/20 01:41:02;;;;;;;6.50;0.95;;;15.30;76.90;;;;;;4957703;29;20429;-79
2021/09/20 01:43:28;;;;;;;3.13;0.60;;;15.30;76.90;;;;;;4957067;29;20023;-79
2021/09/20 01:45:53;;;;;;;3.38;0.80;;;15.30;76.80;;;;;;4956901;29;20034;-78
2021/09/20 01:48:19;;;;;;;6.60;0.98;;;15.20;77.00;;;;;;4956575;29;20106;-79
2021/09/20 01:50:46;;;;;;;4.18;0.68;;;15.20;76.80;;;;;;4939882;29;20377;-79
2021/09/20 01:53:13;;;;;;;4.82;0.70;;;15.20;77.00;;;;;;4953479;29;20035;-79
2021/09/20 01:55:39;;;;;;;6.15;0.80;;;15.30;77.20;;;;;;4956679;29;20043;-77
2021/09/20 01:58:05;;;;;;;5.50;0.80;;;15.20;77.20;;;;;;4956822;29;20023;-79
2021/09/20 02:00:31;;;;;;;4.68;0.70;;;15.30;77.20;;;;;;4956859;29;20046;-80
2021/09/20 02:02:56;;;;;;;4.55;0.60;;;15.30;77.10;;;;;;4956517;29;20027;-78
2021/09/20 02:05:22;;;;;;;5.38;0.80;;;15.20;77.10;;;;;;4956687;29;20051;-79
2021/09/20 02:07:48;;;;;;;4.38;0.80;;;15.20;77.00;;;;;;4957194;29;20070;-79
2021/09/20 02:10:16;;;;;;;4.65;0.77;;;15.20;76.90;;;;;;4939236;29;20043;-79
2021/09/20 02:12:42;;;;;;;3.00;0.68;;;15.20;76.90;;;;;;4939377;29;20020;-79
2021/09/20 02:15:09;;;;;;;6.07;0.93;;;15.20;77.20;;;;;;4956508;29;20575;-77
2021/09/20 02:17:35;;;;;;;4.55;0.95;;;15.10;77.20;;;;;;4956409;29;20039;-79
2021/09/20 02:20:01;;;;;;;4.30;0.70;;;15.10;77.20;;;;;;4956911;29;20148;-79
2021/09/20 02:22:27;;;;;;;5.25;0.77;;;15.10;76.90;;;;;;4939043;29;20031;-79
2021/09/20 02:24:53;;;;;;;6.78;0.80;;;15.00;77.00;;;;;;4956288;29;20373;-79
2021/09/20 02:27:19;;;;;;;4.30;0.80;;;15.00;77.50;;;;;;4956242;29;20055;-80
2021/09/20 02:29:44;;;;;;;6.05;1.13;;;15.00;77.40;;;;;;4954629;28;20031;-79
2021/09/20 02:32:10;;;;;;;5.65;0.80;;;15.10;77.40;;;;;;4952644;29;20046;-80
2021/09/20 02:34:36;;;;;;;5.50;0.98;;;15.10;77.50;;;;;;4955994;29;20063;-79
2021/09/20 02:37:02;;;;;;;5.70;0.90;;;15.10;76.90;;;;;;4956072;29;20496;-79
2021/09/20 02:39:27;;;;;;;3.60;0.70;;;15.10;77.30;;;;;;4955976;29;20054;-80
2021/09/20 02:41:53;;;;;;;4.30;0.73;;;15.00;77.10;;;;;;4956117;29;20090;-78
2021/09/20 02:44:19;;;;;;;3.03;0.82;;;15.00;77.20;;;;;;4938565;29;20027;-79
2021/09/20 02:46:45;;;;;;;4.88;0.70;;;15.00;77.50;;;;;;4956276;29;20039;-79
2021/09/20 02:49:10;;;;;;;4.78;0.80;;;15.00;77.00;;;;;;4938493;29;20036;-80
2021/09/20 02:51:36;;;;;;;4.75;0.80;;;15.00;77.20;;;;;;4955753;29;20073;-79
2021/09/20 02:54:02;;;;;;;3.90;0.60;;;15.00;77.00;;;;;;4955676;29;20042;-80
2021/09/20 02:56:27;;;;;;;5.65;0.90;;;14.90;77.00;;;;;;4955861;29;20413;-79
2021/09/20 02:58:53;;;;;;;3.28;0.70;;;14.90;77.00;;;;;;4955841;29;20031;-80
2021/09/20 03:01:19;;;;;;;4.32;1.00;;;14.80;77.20;;;;;;4955605;29;20508;-79
2021/09/20 03:03:44;;;;;;;4.57;0.88;;;14.80;77.00;;;;;;4955693;29;20027;-79
2021/09/20 03:06:10;;;;;;;4.00;0.65;;;14.80;77.30;;;;;;4938271;29;20027;-79
2021/09/20 03:08:36;;;;;;;2.20;0.70;;;14.70;77.30;;;;;;4955548;29;20547;-79
2021/09/20 03:11:01;;;;;;;2.00;0.57;;;14.70;77.60;;;;;;4956125;29;20045;-80
2021/09/20 03:13:27;;;;;;;3.38;0.90;;;14.70;77.60;;;;;;4955208;29;20822;-79
2021/09/20 03:15:52;;;;;;;3.70;0.60;;;14.70;77.60;;;;;;4955329;29;20035;-79
2021/09/20 03:18:18;;;;;;;3.40;0.75;;;14.60;77.60;;;;;;4938042;29;20377;-80
2021/09/20 03:20:44;;;;;;;4.75;0.85;;;14.60;77.50;;;;;;4955427;29;20496;-79
2021/09/20 03:23:09;;;;;;;3.78;0.57;;;14.60;77.80;;;;;;4938797;29;20408;-79
2021/09/20 03:25:35;;;;;;;5.60;0.90;;;14.50;77.90;;;;;;4937920;29;20027;-79
2021/09/20 03:28:01;;;;;;;3.65;0.70;;;14.50;77.90;;;;;;4954825;29;20424;-79
2021/09/20 03:30:26;;;;;;;3.75;0.70;;;14.60;78.00;;;;;;4955083;29;20613;-79
2021/09/20 03:32:52;;;;;;;3.03;0.60;;;14.60;77.90;;;;;;4937844;29;20055;-79
2021/09/20 03:35:18;;;;;;;5.45;0.70;;;14.60;78.10;;;;;;4955150;29;20094;-80
2021/09/20 03:37:46;;;;;;;5.50;0.75;;;14.60;77.90;;;;;;4938114;29;20041;-79
2021/09/20 03:40:13;;;;;;;2.25;0.60;;;14.60;77.90;;;;;;4954359;28;20035;-80
2021/09/20 03:42:39;;;;;;;3.65;0.77;;;14.70;77.90;;;;;;4954468;29;20023;-79
2021/09/20 03:45:05;;;;;;;4.82;0.63;;;14.60;77.60;;;;;;4954930;29;20129;-79
2021/09/20 03:47:31;;;;;;;3.92;0.65;;;14.60;77.60;;;;;;4954791;29;20495;-79
2021/09/20 03:49:57;;;;;;;4.03;0.70;;;14.50;77.60;;;;;;4955425;29;20035;-78
2021/09/20 03:52:22;;;;;;;5.78;0.70;;;14.50;77.60;;;;;;4954743;29;20023;-80
2021/09/20 03:54:48;;;;;;;3.28;0.80;;;14.50;77.80;;;;;;4937113;29;20031;-79
2021/09/20 03:57:14;;;;;;;2.55;0.55;;;14.50;78.10;;;;;;4954382;29;20070;-78
2021/09/20 03:59:39;;;;;;;4.07;0.77;;;14.50;77.90;;;;;;4954666;29;20031;-79
2021/09/20 04:02:05;;;;;;;2.38;0.77;;;14.50;78.10;;;;;;4937058;29;20034;-79
2021/09/20 04:04:31;;;;;;;4.88;0.63;;;14.50;78.00;;;;;;4936920;29;20031;-79
2021/09/20 04:06:57;;;;;;;3.70;0.57;;;14.40;77.90;;;;;;4936473;29;20038;-79
2021/09/20 04:09:24;;;;;;;5.75;0.98;;;14.40;78.20;;;;;;4936584;29;20039;-79
2021/09/20 04:11:49;;;;;;;3.35;0.68;;;14.50;78.50;;;;;;4953561;29;20027;-79
2021/09/20 04:14:15;;;;;;;4.57;0.85;;;14.50;78.30;;;;;;4954132;29;20381;-80
2021/09/20 04:16:41;;;;;;;5.85;0.88;;;14.50;78.00;;;;;;4954121;29;20071;-79
2021/09/20 04:19:06;;;;;;;6.10;0.75;;;14.50;77.90;;;;;;4936800;29;20023;-79
2021/09/20 04:21:32;;;;;;;7.30;0.98;;;14.50;78.40;;;;;;4954134;29;20086;-79
2021/09/20 04:23:57;;;;;;;3.30;0.75;;;14.50;78.30;;;;;;4954137;29;20484;-79
2021/09/20 04:26:23;;;;;;;4.32;0.65;;;14.50;77.70;;;;;;4936767;29;20031;-79
2021/09/20 04:28:49;;;;;;;5.78;0.70;;;14.50;78.10;;;;;;4937272;29;20031;-80
2021/09/20 04:31:14;;;;;;;7.13;0.73;;;14.60;78.20;;;;;;4936763;29;20062;-79
2021/09/20 04:33:40;;;;;;;6.55;0.75;;;14.60;77.90;;;;;;4936689;29;20047;-79
2021/09/20 04:36:06;;;;;;;4.72;0.90;;;14.50;77.60;;;;;;4953497;29;20091;-79
2021/09/20 04:38:31;;;;;;;2.90;0.65;;;14.50;77.40;;;;;;4954034;29;20030;-79
2021/09/20 04:40:57;;;;;;;2.50;0.40;;;14.40;77.70;;;;;;4954320;29;20031;-79
2021/09/20 04:43:22;;;;;;;6.00;0.90;;;14.50;77.80;;;;;;4953866;29;20114;-79
2021/09/20 04:45:49;;;;;;;4.32;0.70;;;14.40;77.60;;;;;;4953754;29;20051;-78
2021/09/20 04:48:15;;;;;;;5.80;0.82;;;14.40;77.80;;;;;;4953731;29;20086;-80
2021/09/20 04:50:43;;;;;;;3.97;0.80;;;14.40;77.80;;;;;;4953800;29;20050;-79
2021/09/20 04:53:10;;;;;;;3.92;0.75;;;14.50;77.60;;;;;;4953683;28;20106;-79
2021/09/20 04:55:36;;;;;;;4.72;0.73;;;14.40;77.70;;;;;;4936040;29;20043;-78
2021/09/20 04:58:10;;;;;;;3.88;0.80;;;14.40;77.70;;;;;;4953528;29;20023;-79
2021/09/20 05:00:37;;;;;;;4.53;0.60;;;14.40;77.80;;;;;;4953638;29;20118;-79
2021/09/20 05:03:03;;;;;;;5.30;1.17;;;14.50;77.80;;;;;;4953511;29;20015;-80
2021/09/20 05:05:29;;;;;;;3.78;0.60;;;14.50;77.70;;;;;;4953755;29;20031;-78
2021/09/20 05:07:54;;;;;;;3.13;0.68;;;14.50;77.70;;;;;;4952128;29;20503;-78
2021/09/20 05:10:20;;;;;;;4.07;0.80;;;14.40;77.50;;;;;;4953126;29;20086;-78
2021/09/20 05:12:47;;;;;;;3.28;0.60;;;14.40;77.50;;;;;;4936312;29;20092;-79
2021/09/20 05:15:14;;;;;;;4.43;0.50;;;14.40;77.70;;;;;;4953633;29;20506;-78
2021/09/20 05:17:40;;;;;;;4.05;0.68;;;14.50;77.70;;;;;;4936234;29;20090;-79
2021/09/20 05:20:06;;;;;;;3.15;0.60;;;14.50;77.70;;;;;;4953899;29;20492;-80
2021/09/20 05:22:32;;;;;;;3.35;0.60;;;14.50;77.60;;;;;;4953432;29;20113;-79
2021/09/20 05:24:58;;;;;;;3.53;0.63;;;14.40;77.40;;;;;;4935760;29;20508;-78
2021/09/20 05:27:23;;;;;;;4.47;0.70;;;14.40;77.40;;;;;;4953244;29;20031;-79
2021/09/20 05:29:49;;;;;;;5.45;0.70;;;14.40;77.50;;;;;;4953457;29;20027;-79
2021/09/20 05:32:15;;;;;;;4.43;0.60;;;14.40;77.70;;;;;;4942327;29;20035;-79
2021/09/20 05:34:40;;;;;;;3.85;0.90;;;14.40;77.40;;;;;;4952813;29;20047;-79
2021/09/20 05:37:06;;;;;;;4.78;0.93;;;14.40;77.40;;;;;;4952922;29;20035;-79
2021/09/20 05:39:33;;;;;;;6.70;0.70;;;14.40;77.80;;;;;;4921677;29;20019;-79
2021/09/20 05:42:01;;;;;;;5.25;0.75;;;14.40;77.90;;;;;;4930740;29;20087;-79
2021/09/20 05:44:26;;;;;;;3.60;0.90;;;14.40;77.60;;;;;;4952596;29;20023;-78
2021/09/20 05:46:52;;;;;;;1.95;0.63;;;14.40;77.80;;;;;;4952828;29;20058;-79
2021/09/20 05:49:18;;;;;;;5.72;0.85;;;14.50;77.40;;;;;;4951151;29;20031;-80
2021/09/20 05:51:43;;;;;;;3.53;0.55;;;14.50;77.50;;;;;;4950951;29;20514;-79
2021/09/20 05:54:09;;;;;;;4.85;0.80;;;14.50;77.40;;;;;;4940229;29;20031;-79
2021/09/20 05:56:35;;;;;;;6.22;1.10;;;14.50;77.50;;;;;;4952033;29;20051;-78
2021/09/20 05:59:01;;;;;;;4.88;0.70;;;14.50;77.50;;;;;;4952284;29;20059;-79
2021/09/20 06:01:27;;;;;;;4.03;0.95;;;14.50;77.50;;;;;;4951368;29;20043;-79
2021/09/20 06:03:52;;;;;;;6.53;0.95;;;14.50;77.50;;;;;;4951453;28;20024;-79
2021/09/20 06:06:18;;;;;;;4.65;1.00;;;14.50;77.40;;;;;;4951989;29;20495;-78
2021/09/20 06:08:44;;;;;;;6.22;1.20;;;14.50;77.50;;;;;;4952812;29;20027;-81
2021/09/20 06:11:11;;;;;;;4.13;0.82;;;14.50;77.30;;;;;;4950270;29;20067;-80
2021/09/20 06:13:38;;;;;;;4.35;0.80;;;14.50;77.40;;;;;;4955562;29;20034;-80
2021/09/20 06:16:04;;;;;;;3.67;0.50;;;14.50;77.40;;;;;;4954970;29;20058;-80
2021/09/20 06:18:29;;;;;;;5.43;1.10;;;14.50;77.40;;;;;;4938417;29;20396;-79
2021/09/20 06:20:55;;;;;;;3.35;0.98;;;14.60;77.60;;;;;;4953652;29;20038;-78
2021/09/20 06:23:21;;;;;;;5.97;0.90;;;14.60;77.60;;;;;;4929797;29;20016;-80
2021/09/20 06:25:47;;;;;;;3.58;0.80;;;14.60;77.50;;;;;;4945237;29;20036;-79
2021/09/20 06:28:12;;;;;;;12.68;1.25;;;14.60;77.30;;;;;;4947102;29;20027;-80
2021/09/20 06:30:38;;;;;;;9.48;1.60;;;14.60;77.50;;;;;;4931262;29;20444;-79
2021/09/20 06:33:04;;;;;;;7.43;1.20;;;14.60;77.50;;;;;;4945563;29;20067;-78
2021/09/20 06:35:30;;;;;;;3.72;0.80;;;14.70;77.60;;;;;;4946326;29;20040;-80
2021/09/20 06:37:56;;;;;;;4.10;0.70;;;14.70;77.40;;;;;;4945753;29;20030;-78
2021/09/20 06:40:21;;;;;;;5.32;1.02;;;14.70;77.60;;;;;;4945617;29;20036;-79
2021/09/20 06:42:47;;;;;;;4.43;0.82;;;14.80;77.60;;;;;;4947000;29;20035;-80
2021/09/20 06:45:13;;;;;;;8.20;0.80;;;14.90;77.40;;;;;;4948431;29;20391;-81
2021/09/20 06:47:38;;;;;;;4.80;0.90;;;15.10;77.60;;;;;;4949250;29;20066;-78
2021/09/20 06:50:06;;;;;;;6.10;0.82;;;15.20;77.20;;;;;;4947009;29;20110;-79
2021/09/20 06:52:32;;;;;;;3.42;0.82;;;15.30;77.30;;;;;;4930483;29;20027;-79
2021/09/20 06:54:57;;;;;;;4.95;0.85;;;15.60;77.10;;;;;;4947585;29;20028;-79
2021/09/20 06:57:23;;;;;;;5.88;1.08;;;15.80;76.70;;;;;;4945196;29;20035;-79
2021/09/20 06:59:49;;;;;;;10.30;1.00;;;15.90;75.80;;;;;;4948548;29;20051;-79
2021/09/20 07:02:15;;;;;;;7.07;0.88;;;16.10;75.70;;;;;;4931350;29;20027;-79
2021/09/20 07:04:40;;;;;;;3.53;0.75;;;16.20;75.20;;;;;;4947664;29;20095;-79
2021/09/20 07:07:06;;;;;;;4.25;0.70;;;16.20;74.90;;;;;;4947203;29;20027;-78
2021/09/20 07:09:32;;;;;;;4.45;0.70;;;16.30;74.70;;;;;;4932848;29;20050;-79
2021/09/20 07:11:57;;;;;;;3.35;0.80;;;16.30;74.80;;;;;;4946515;29;20401;-78
2021/09/20 07:14:23;;;;;;;5.15;1.10;;;16.40;74.60;;;;;;4928759;29;20070;-79
2021/09/20 07:16:49;;;;;;;3.40;0.73;;;16.60;75.00;;;;;;4950303;29;20035;-79
2021/09/20 07:19:15;;;;;;;5.93;0.90;;;16.80;74.30;;;;;;4938070;29;20123;-79
2021/09/20 07:21:41;;;;;;;4.88;0.73;;;16.90;74.00;;;;;;4955018;29;20074;-79
2021/09/20 07:24:06;;;;;;;4.63;1.05;;;17.10;74.10;;;;;;4954900;29;20515;-78
2021/09/20 07:26:32;;;;;;;3.15;0.60;;;17.20;73.40;;;;;;4953297;29;20054;-79
2021/09/20 07:28:58;;;;;;;4.53;0.80;;;17.30;73.10;;;;;;4945788;29;20038;-79
2021/09/20 07:31:25;;;;;;;5.32;0.85;;;17.30;72.80;;;;;;4945732;29;20034;-79
2021/09/20 07:33:51;;;;;;;2.72;0.80;;;17.40;72.90;;;;;;4889977;29;20583;-79
2021/09/20 07:36:17;;;;;;;7.05;0.90;;;17.60;73.00;;;;;;4910034;29;20058;-80
2021/09/20 07:38:43;;;;;;;4.00;0.98;;;17.90;73.40;;;;;;4894586;29;20031;-77
2021/09/20 07:41:09;;;;;;;3.20;0.90;;;18.20;73.80;;;;;;4898240;29;20094;-74
2021/09/20 07:43:34;;;;;;;5.13;0.90;;;18.30;71.00;;;;;;4918318;29;20030;-75
2021/09/20 07:46:01;;;;;;;5.28;0.93;;;18.20;70.80;;;;;;4905890;29;20039;-71
2021/09/20 07:48:27;;;;;;;4.68;0.68;;;18.10;70.50;;;;;;4911493;29;20692;-72
2021/09/20 07:50:54;;;;;;;4.40;0.73;;;18.20;71.40;;;;;;4914702;29;20074;-73
2021/09/20 07:53:19;;;;;;;3.22;0.77;;;18.40;71.50;;;;;;4914765;29;20745;-72
2021/09/20 07:55:47;;;;;;;4.80;0.73;;;18.50;71.80;;;;;;4905867;29;20134;-72
2021/09/20 07:58:13;;;;;;;4.95;0.80;;;18.60;70.60;;;;;;4931901;29;20061;-76
2021/09/20 08:00:42;;;;;;;2.97;0.80;;;18.50;70.30;;;;;;4954104;29;20031;-73
2021/09/20 08:03:11;;;;;;;6.28;0.75;;;18.40;70.00;;;;;;4943217;29;20390;-75
2021/09/20 08:05:40;;;;;;;4.15;0.82;;;18.30;70.80;;;;;;4951878;29;20412;-76
2021/09/20 08:08:06;;;;;;;3.83;0.82;;;18.40;71.20;;;;;;4928757;29;20030;-73
2021/09/20 08:10:33;;;;;;;3.22;0.70;;;18.50;71.20;;;;;;4940079;29;20032;-73
2021/09/20 08:13:00;;;;;;;4.15;0.90;;;18.80;71.30;;;;;;4945577;29;20031;-73
2021/09/20 08:15:26;;;;;;;8.35;2.53;;;19.00;71.30;;;;;;4936039;29;20551;-74
2021/09/20 08:17:52;;;;;;;6.38;2.20;;;19.20;71.10;;;;;;4952990;29;20023;-74
2021/09/20 08:20:18;;;;;;;8.93;2.33;;;19.30;70.70;;;;;;4952911;29;20472;-73
2021/09/20 08:22:48;;;;;;;8.02;2.58;;;19.40;70.50;;;;;;4952527;29;20431;-76
2021/09/20 08:25:14;;;;;;;5.38;1.80;;;19.60;71.60;;;;;;4953603;29;20110;-78
2021/09/20 08:27:40;;;;;;;5.95;2.20;;;19.80;70.20;;;;;;4952283;28;20118;-77
2021/09/20 08:30:06;;;;;;;5.20;1.73;;;19.90;69.60;;;;;;4953825;29;20035;-77
2021/09/20 08:32:32;;;;;;;7.75;1.85;;;20.10;69.00;;;;;;4953460;29;20507;-76
2021/09/20 08:34:57;;;;;;;6.25;1.33;;;20.30;69.80;;;;;;4945256;29;20067;-72
2021/09/20 08:37:24;;;;;;;4.15;1.08;;;20.50;69.60;;;;;;4945367;29;20036;-72
2021/09/20 08:39:49;;;;;;;5.38;1.10;;;20.50;68.80;;;;;;4926006;29;20054;-72
2021/09/20 08:42:16;;;;;;;9.55;1.60;;;20.50;68.20;;;;;;4950892;29;20058;-73
2021/09/20 08:44:42;;;;;;;5.03;1.20;;;20.50;68.40;;;;;;4937247;29;20054;-77
2021/09/20 08:47:08;;;;;;;6.50;1.20;;;20.80;68.70;;;;;;4952536;29;20512;-75
2021/09/20 08:49:34;;;;;;;3.63;1.13;;;21.00;68.50;;;;;;4952211;29;20042;-76
2021/09/20 08:52:00;;;;;;;5.13;1.20;;;21.10;68.40;;;;;;4951850;29;20046;-81
2021/09/20 08:54:27;;;;;;;4.63;1.33;;;21.30;67.60;;;;;;4952818;29;20063;-74
2021/09/20 08:56:54;;;;;;;4.82;1.35;;;21.40;66.90;;;;;;4952433;29;20082;-73
2021/09/20 08:59:20;;;;;;;7.50;2.20;;;21.60;67.60;;;;;;4952066;29;20020;-73
2021/09/20 09:01:50;;;;;;;4.03;1.20;;;21.80;67.20;;;;;;4952714;29;20035;-74
2021/09/20 09:04:28;;;;;;;5.30;0.93;;;22.00;66.80;;;;;;4952400;29;20505;-78
2021/09/20 09:07:04;;;;;;;4.47;1.02;;;22.00;66.10;;;;;;4951868;29;20027;-63
2021/09/20 09:09:31;;;;;;;4.28;1.10;;;22.00;65.40;;;;;;4951602;29;20141;-62
2021/09/20 09:12:20;;;;;;;4.20;1.42;;;22.10;65.20;;;;;;4952491;29;20030;-63
2021/09/20 09:14:59;;;;;;;5.75;1.23;;;22.00;64.90;;;;;;4936749;29;20094;-64
2021/09/20 09:17:34;;;;;;;5.15;1.55;;;22.00;65.40;;;;;;4950040;29;20078;-61
2021/09/20 09:20:28;;;;;;;2.90;0.93;;;22.10;65.50;;;;;;4950596;29;20037;-63
2021/09/20 09:22:57;;;;;;;5.72;1.30;;;22.30;65.80;;;;;;4949928;29;20074;-63
2021/09/20 09:25:26;;;;;;;6.53;1.40;;;22.40;65.20;;;;;;4946754;29;20576;-64
2021/09/20 09:28:02;;;;;;;5.07;1.05;;;22.50;64.60;;;;;;4951362;29;20557;-64
2021/09/20 09:30:38;;;;;;;3.33;1.40;;;22.50;64.60;;;;;;4951409;29;20547;-63
2021/09/20 09:33:14;;;;;;;5.40;1.40;;;22.30;63.80;;;;;;4948270;29;20031;-63
2021/09/20 09:35:48;;;;;;;6.25;1.77;;;22.10;64.00;;;;;;4943380;29;20047;-63
2021/09/20 09:38:15;;;;;;;4.63;1.30;;;21.90;64.20;;;;;;4949937;28;20042;-63
2021/09/20 09:40:55;;;;;;;5.78;1.02;;;21.70;64.30;;;;;;4955538;29;20086;-67
2021/09/20 09:43:42;;;;;;;4.43;0.95;;;21.40;64.70;;;;;;4954685;29;20519;-64
2021/09/20 09:46:19;;;;;;;5.53;0.95;;;21.10;64.70;;;;;;4955702;29;20110;-63
2021/09/20 09:48:45;;;;;;;4.25;1.10;;;20.90;65.70;;;;;;4955865;29;20026;-63
2021/09/20 09:51:11;;;;;;;4.07;0.90;;;20.80;65.80;;;;;;4954947;29;20039;-61
2021/09/20 09:53:38;;;;;;;4.93;1.08;;;20.70;66.90;;;;;;4955804;29;20035;-63
2021/09/20 09:56:18;;;;;;;4.55;0.90;;;20.60;66.00;;;;;;4956325;29;20039;-60
2021/09/20 09:58:55;;;;;;;4.32;0.93;;;20.40;66.60;;;;;;4955910;29;20031;-60
2021/09/20 10:01:28;;;;;;;4.85;1.00;;;20.40;67.00;;;;;;4955099;29;20036;-61
2021/09/20 10:04:10;;;;;;;3.63;0.80;;;20.40;67.30;;;;;;4955193;29;20078;-60
2021/09/20 10:06:41;;;;;;;5.68;1.10;;;20.60;67.40;;;;;;4955507;29;20503;-64
2021/09/20 10:09:08;;;;;;;4.53;0.95;;;21.00;68.30;;;;;;4956057;29;20090;-62
2021/09/20 10:11:39;;;;;;;4.22;1.00;;;21.20;66.80;;;;;;4956111;29;20032;-63
2021/09/20 10:14:06;;;;;;;3.40;1.25;;;21.10;66.60;;;;;;4956294;29;20035;-64
2021/09/20 10:16:34;;;;;;;2.88;1.45;;;21.00;64.50;;;;;;4955829;29;20039;-64
2021/09/20 10:19:00;;;;;;;3.97;1.30;;;21.10;65.90;;;;;;4955463;29;20556;-63
2021/09/20 10:21:27;;;;;;;3.72;1.77;;;21.10;65.70;;;;;;4955851;29;20492;-65
2021/09/20 10:23:54;;;;;;;6.78;1.60;;;21.00;65.50;;;;;;4956249;29;20119;-64
2021/09/20 10:26:20;;;;;;;5.82;1.30;;;20.90;65.00;;;;;;4956151;29;20100;-63
2021/09/20 10:28:57;;;;;;;4.88;1.40;;;20.80;65.20;;;;;;4954550;29;20027;-64
2021/09/20 10:31:25;;;;;;;4.80;1.10;;;20.70;65.60;;;;;;4955658;29;20038;-64
2021/09/20 10:34:20;;;;;;;4.53;1.00;;;20.60;65.60;;;;;;4955588;29;20051;-65
2021/09/20 10:36:46;;;;;;;3.42;0.98;;;20.40;65.50;;;;;;4955484;29;20047;-65
2021/09/20 10:39:12;;;;;;;4.00;1.40;;;20.20;65.90;;;;;;4955529;29;20030;-64
2021/09/20 10:41:38;;;;;;;5.90;1.20;;;20.20;66.10;;;;;;4954524;29;20031;-64
2021/09/20 10:44:03;;;;;;;3.05;0.80;;;20.20;66.50;;;;;;4955224;29;20456;-64
2021/09/20 10:46:29;;;;;;;3.53;0.90;;;20.30;66.10;;;;;;4955528;29;20035;-66
2021/09/20 10:49:01;;;;;;;2.72;0.75;;;20.40;66.40;;;;;;4955222;28;20589;-64
2021/09/20 10:51:28;;;;;;;4.15;0.70;;;20.40;65.50;;;;;;4954425;29;20496;-65
2021/09/20 10:54:15;;;;;;;7.65;1.00;;;20.70;65.80;;;;;;4954906;29;20055;-65
2021/09/20 10:56:43;;;;;;;2.65;0.57;;;21.00;65.70;;;;;;4947193;29;20543;-66
2021/09/20 10:59:08;;;;;;;2.70;0.93;;;21.20;64.30;;;;;;4954200;29;20031;-65
2021/09/20 11:01:35;;;;;;;3.22;0.70;;;21.40;63.60;;;;;;4954153;29;20065;-63
2021/09/20 11:04:09;;;;;;;2.33;0.88;;;21.40;62.00;;;;;;4948732;29;20082;-67
2021/09/20 11:06:37;;;;;;;2.67;0.70;;;21.40;60.90;;;;;;4953902;29;20031;-72
2021/09/20 11:09:25;;;;;;;3.80;0.80;;;21.20;62.00;;;;;;4954985;29;20059;-80
2021/09/20 11:12:02;;;;;;;2.28;0.65;;;21.10;62.60;;;;;;4940781;29;20054;-80
2021/09/20 11:14:49;;;;;;;3.15;0.70;;;21.00;61.10;;;;;;4950042;29;20058;-74
2021/09/20 11:17:21;;;;;;;5.72;1.02;;;21.00;62.40;;;;;;4936606;29;20038;-75
2021/09/20 11:19:48;;;;;;;5.07;0.93;;;21.10;62.20;;;;;;4954468;29;20036;-73
2021/09/20 11:22:19;;;;;;;2.78;0.70;;;21.20;62.20;;;;;;4949857;29;20028;-73
2021/09/20 11:24:55;;;;;;;3.97;0.70;;;21.30;61.90;;;;;;4940724;29;20037;-73
2021/09/20 11:27:25;;;;;;;7.22;0.70;;;21.30;60.80;;;;;;4942834;29;20102;-73
2021/09/20 11:29:53;;;;;;;3.28;0.80;;;21.30;60.70;;;;;;4955043;29;20054;-73
2021/09/20 11:32:19;;;;;;;5.28;0.90;;;21.50;60.60;;;;;;4954153;29;20034;-73
2021/09/20 11:34:48;;;;;;;2.70;0.70;;;21.70;60.20;;;;;;4954363;29;20051;-73
2021/09/20 11:37:23;;;;;;;3.35;0.60;;;21.80;60.30;;;;;;4954669;29;20067;-73
2021/09/20 11:40:11;;;;;;;2.83;0.68;;;21.70;58.80;;;;;;4954828;29;20058;-73
2021/09/20 11:42:37;;;;;;;1.67;0.60;;;21.80;59.70;;;;;;4954491;29;20042;-73
2021/09/20 11:45:27;;;;;;;2.58;0.70;;;21.90;59.70;;;;;;4954713;29;20031;-73
2021/09/20 11:47:55;;;;;;;1.45;0.52;;;22.00;59.80;;;;;;4923455;29;20114;-73
2021/09/20 11:50:27;;;;;;;2.63;0.70;;;22.30;59.50;;;;;;4937591;29;20472;-73
2021/09/20 11:52:55;;;;;;;3.35;0.68;;;22.80;59.80;;;;;;4954784;29;20167;-73
2021/09/20 11:55:23;;;;;;;4.25;0.80;;;23.50;60.20;;;;;;4936712;29;20038;-73
2021/09/20 11:57:51;;;;;;;1.60;0.60;;;25.60;58.40;;;;;;4954177;29;20046;-73
2021/09/20 12:00:19;;;;;;;3.10;0.70;;;26.10;52.90;;;;;;4919286;29;20186;-74
2021/09/20 12:02:47;;;;;;;1.80;0.60;;;25.50;51.50;;;;;;4877843;29;20171;-74
2021/09/20 12:05:15;;;;;;;3.35;0.80;;;24.90;52.10;;;;;;4889749;29;20031;-73
2021/09/20 12:07:50;;;;;;;1.85;0.68;;;26.70;61.40;;;;;;4880194;29;20110;-74
2021/09/20 12:10:17;;;;;;;3.35;0.70;;;30.40;53.60;;;;;;4878917;29;20063;-74
2021/09/20 12:12:48;;;;;;;3.92;0.90;;;30.10;42.20;;;;;;4937268;29;20027;-73
2021/09/20 12:15:15;;;;;;;1.52;0.68;;;29.80;47.20;;;;;;4954220;29;20123;-73
2021/09/20 12:17:46;;;;;;;3.33;0.88;;;31.10;44.60;;;;;;4954085;29;20039;-73
2021/09/20 12:20:13;;;;;;;3.60;0.60;;;30.30;39.70;;;;;;4950620;29;20074;-73
2021/09/20 12:22:40;;;;;;;2.17;0.60;;;30.10;40.30;;;;;;4953835;29;20036;-73
2021/09/20 12:25:49;;;;;;;4.13;0.80;;;30.20;44.10;;;;;;4953498;29;20489;-73
2021/09/20 12:28:19;;;;;;;2.53;0.68;;;30.10;41.40;;;;;;4932104;29;20532;-73
2021/09/20 12:31:05;;;;;;;1.83;0.50;;;31.30;42.00;;;;;;4953673;29;20026;-73
2021/09/20 12:33:46;;;;;;;1.58;0.75;;;32.00;44.30;;;;;;4936193;29;20142;-74
2021/09/20 12:36:23;;;;;;;2.03;0.73;;;31.70;37.00;;;;;;4953475;29;20039;-73
2021/09/20 12:39:10;;;;;;;2.78;0.80;;;32.30;37.70;;;;;;4938641;29;20075;-74
2021/09/20 12:41:43;;;;;;;2.10;0.70;;;31.30;35.30;;;;;;4953956;29;20035;-74
2021/09/20 12:44:10;;;;;;;2.40;0.95;;;30.40;38.10;;;;;;4954108;29;20550;-73
2021/09/20 12:46:38;;;;;;;1.23;0.60;;;30.20;39.60;;;;;;4926359;29;20382;-73
2021/09/20 12:49:05;;;;;;;2.30;0.63;;;31.10;35.20;;;;;;4950542;29;20031;-73
2021/09/20 12:51:37;;;;;;;1.60;0.88;;;32.30;39.50;;;;;;4943847;29;20050;-73